sensor_id;sensor_type;location;lat;lon;timestamp;P1;durP1;ratioP1;P2;durP2;ratioP2
26562;SDS011;14217;50.986;5.826;2023-07-16T00:02:49;1.10;;;0.60;;
26562;SDS011;14217;50.986;5.826;2023-07-16T00:07:51;0.82;;;0.80;;
26562;SDS011;14217;50.986;5.826;2023-07-16T00:12:53;1.50;;;0.70;;
26562;SDS011;14217;50.986;5.826;2023-07-16T00:17:55;0.73;;;0.43;;
26562;SDS011;14217;50.986;5.826;2023-07-16T00:22:57;2.05;;;0.68;;
26562;SDS011;14217;50.986;5.826;2023-07-16T00:27:59;1.05;;;0.50;;
26562;SDS011;14217;50.986;5.826;2023-07-16T00:33:01;0.90;;;0.60;;
26562;SDS011;14217;50.986;5.826;2023-07-16T00:38:03;2.13;;;0.70;;
26562;SDS011;14217;50.986;5.826;2023-07-16T00:43:05;1.35;;;0.73;;
26562;SDS011;14217;50.986;5.826;2023-07-16T00:48:07;1.98;;;0.55;;
26562;SDS011;14217;50.986;5.826;2023-07-16T00:53:10;1.88;;;0.80;;
26562;SDS011;14217;50.986;5.826;2023-07-16T00:58:13;2.17;;;0.73;;
26562;SDS011;14217;50.986;5.826;2023-07-16T01:03:15;1.60;;;0.40;;
26562;SDS011;14217;50.986;5.826;2023-07-16T01:08:30;1.52;;;0.77;;
26562;SDS011;14217;50.986;5.826;2023-07-16T01:13:55;2.47;;;0.60;;
26562;SDS011;14217;50.986;5.826;2023-07-16T01:18:58;3.08;;;0.85;;
26562;SDS011;14217;50.986;5.826;2023-07-16T01:29:36;1.52;;;0.70;;
26562;SDS011;14217;50.986;5.826;2023-07-16T01:34:53;2.15;;;0.80;;
26562;SDS011;14217;50.986;5.826;2023-07-16T01:39:55;0.98;;;0.60;;
26562;SDS011;14217;50.986;5.826;2023-07-16T01:44:57;0.60;;;0.40;;
26562;SDS011;14217;50.986;5.826;2023-07-16T01:49:59;1.52;;;0.98;;
26562;SDS011;14217;50.986;5.826;2023-07-16T01:55:01;3.67;;;0.80;;
26562;SDS011;14217;50.986;5.826;2023-07-16T02:00:03;1.63;;;0.60;;
26562;SDS011;14217;50.986;5.826;2023-07-16T02:05:06;2.63;;;0.75;;
26562;SDS011;14217;50.986;5.826;2023-07-16T02:10:08;1.38;;;0.77;;
26562;SDS011;14217;50.986;5.826;2023-07-16T02:15:10;1.25;;;0.50;;
26562;SDS011;14217;50.986;5.826;2023-07-16T02:20:13;2.05;;;0.85;;
26562;SDS011;14217;50.986;5.826;2023-07-16T02:25:15;8.85;;;0.77;;
26562;SDS011;14217;50.986;5.826;2023-07-16T02:30:17;4.75;;;0.60;;
26562;SDS011;14217;50.986;5.826;2023-07-16T02:35:19;5.00;;;1.15;;
26562;SDS011;14217;50.986;5.826;2023-07-16T02:40:21;1.45;;;0.55;;
26562;SDS011;14217;50.986;5.826;2023-07-16T02:45:23;2.70;;;0.60;;
26562;SDS011;14217;50.986;5.826;2023-07-16T02:50:25;2.10;;;0.68;;
26562;SDS011;14217;50.986;5.826;2023-07-16T02:55:27;0.82;;;0.60;;
26562;SDS011;14217;50.986;5.826;2023-07-16T03:00:30;3.40;;;0.85;;
26562;SDS011;14217;50.986;5.826;2023-07-16T03:05:33;1.88;;;0.63;;
26562;SDS011;14217;50.986;5.826;2023-07-16T03:10:35;2.10;;;0.90;;
26562;SDS011;14217;50.986;5.826;2023-07-16T03:15:37;2.67;;;0.90;;
26562;SDS011;14217;50.986;5.826;2023-07-16T03:20:39;1.70;;;0.80;;
26562;SDS011;14217;50.986;5.826;2023-07-16T03:25:41;2.78;;;1.10;;
26562;SDS011;14217;50.986;5.826;2023-07-16T03:30:50;1.65;;;0.85;;
26562;SDS011;14217;50.986;5.826;2023-07-16T03:35:52;2.60;;;1.08;;
26562;SDS011;14217;50.986;5.826;2023-07-16T03:40:54;2.17;;;1.08;;
26562;SDS011;14217;50.986;5.826;2023-07-16T03:45:56;1.92;;;0.73;;
26562;SDS011;14217;50.986;5.826;2023-07-16T03:50:58;5.43;;;1.67;;
26562;SDS011;14217;50.986;5.826;2023-07-16T03:56:01;2.42;;;1.05;;
26562;SDS011;14217;50.986;5.826;2023-07-16T04:01:03;1.52;;;0.80;;
26562;SDS011;14217;50.986;5.826;2023-07-16T04:06:05;5.20;;;0.88;;
26562;SDS011;14217;50.986;5.826;2023-07-16T04:11:11;2.65;;;1.10;;
26562;SDS011;14217;50.986;5.826;2023-07-16T04:16:13;2.30;;;0.98;;
26562;SDS011;14217;50.986;5.826;2023-07-16T04:21:15;2.30;;;0.75;;
26562;SDS011;14217;50.986;5.826;2023-07-16T04:26:17;2.17;;;1.00;;
26562;SDS011;14217;50.986;5.826;2023-07-16T04:31:19;3.08;;;1.23;;
26562;SDS011;14217;50.986;5.826;2023-07-16T04:36:22;1.42;;;1.00;;
26562;SDS011;14217;50.986;5.826;2023-07-16T04:41:24;3.42;;;1.38;;
26562;SDS011;14217;50.986;5.826;2023-07-16T04:46:26;3.38;;;0.77;;
26562;SDS011;14217;50.986;5.826;2023-07-16T04:51:28;1.73;;;1.08;;
26562;SDS011;14217;50.986;5.826;2023-07-16T04:56:30;2.35;;;1.60;;
26562;SDS011;14217;50.986;5.826;2023-07-16T05:01:32;1.67;;;1.05;;
26562;SDS011;14217;50.986;5.826;2023-07-16T05:06:34;2.47;;;1.25;;
26562;SDS011;14217;50.986;5.826;2023-07-16T05:11:36;1.63;;;1.20;;
26562;SDS011;14217;50.986;5.826;2023-07-16T05:16:39;2.72;;;1.05;;
26562;SDS011;14217;50.986;5.826;2023-07-16T05:21:42;2.33;;;1.55;;
26562;SDS011;14217;50.986;5.826;2023-07-16T05:26:44;1.42;;;1.10;;
26562;SDS011;14217;50.986;5.826;2023-07-16T05:31:46;2.45;;;1.40;;
26562;SDS011;14217;50.986;5.826;2023-07-16T05:36:48;2.22;;;1.02;;
26562;SDS011;14217;50.986;5.826;2023-07-16T05:41:51;4.30;;;1.20;;
26562;SDS011;14217;50.986;5.826;2023-07-16T05:46:53;2.95;;;1.42;;
26562;SDS011;14217;50.986;5.826;2023-07-16T05:51:55;3.10;;;1.40;;
26562;SDS011;14217;50.986;5.826;2023-07-16T05:56:57;3.10;;;1.40;;
26562;SDS011;14217;50.986;5.826;2023-07-16T06:02:00;2.17;;;1.60;;
26562;SDS011;14217;50.986;5.826;2023-07-16T06:07:02;3.40;;;1.67;;
26562;SDS011;14217;50.986;5.826;2023-07-16T06:12:05;3.50;;;1.63;;
26562;SDS011;14217;50.986;5.826;2023-07-16T06:17:07;3.50;;;1.83;;
26562;SDS011;14217;50.986;5.826;2023-07-16T06:22:09;1.98;;;1.77;;
26562;SDS011;14217;50.986;5.826;2023-07-16T06:27:11;5.60;;;2.53;;
26562;SDS011;14217;50.986;5.826;2023-07-16T06:32:13;9.60;;;2.60;;
26562;SDS011;14217;50.986;5.826;2023-07-16T06:37:15;3.67;;;2.28;;
26562;SDS011;14217;50.986;5.826;2023-07-16T06:42:17;17.00;;;4.05;;
26562;SDS011;14217;50.986;5.826;2023-07-16T06:47:19;8.10;;;2.30;;
26562;SDS011;14217;50.986;5.826;2023-07-16T06:52:21;4.07;;;2.75;;
26562;SDS011;14217;50.986;5.826;2023-07-16T06:57:24;4.65;;;2.63;;
26562;SDS011;14217;50.986;5.826;2023-07-16T07:02:26;4.32;;;2.53;;
26562;SDS011;14217;50.986;5.826;2023-07-16T07:07:28;4.82;;;3.10;;
26562;SDS011;14217;50.986;5.826;2023-07-16T07:12:30;7.95;;;2.33;;
26562;SDS011;14217;50.986;5.826;2023-07-16T07:17:38;4.40;;;2.25;;
26562;SDS011;14217;50.986;5.826;2023-07-16T07:22:41;8.05;;;2.97;;
26562;SDS011;14217;50.986;5.826;2023-07-16T07:27:43;15.50;;;3.55;;
26562;SDS011;14217;50.986;5.826;2023-07-16T07:32:47;2.67;;;2.30;;
26562;SDS011;14217;50.986;5.826;2023-07-16T07:37:49;11.05;;;2.60;;
26562;SDS011;14217;50.986;5.826;2023-07-16T07:42:51;6.47;;;2.17;;
26562;SDS011;14217;50.986;5.826;2023-07-16T07:47:53;6.82;;;2.95;;
26562;SDS011;14217;50.986;5.826;2023-07-16T07:52:56;5.20;;;3.30;;
26562;SDS011;14217;50.986;5.826;2023-07-16T07:57:58;3.63;;;2.92;;
26562;SDS011;14217;50.986;5.826;2023-07-16T08:03:00;4.05;;;3.15;;
26562;SDS011;14217;50.986;5.826;2023-07-16T08:08:03;7.07;;;2.67;;
26562;SDS011;14217;50.986;5.826;2023-07-16T08:13:05;6.22;;;2.88;;
26562;SDS011;14217;50.986;5.826;2023-07-16T08:18:07;5.93;;;2.83;;
26562;SDS011;14217;50.986;5.826;2023-07-16T08:23:10;3.15;;;2.25;;
26562;SDS011;14217;50.986;5.826;2023-07-16T08:28:12;5.72;;;2.72;;
26562;SDS011;14217;50.986;5.826;2023-07-16T08:33:16;2.92;;;2.45;;
26562;SDS011;14217;50.986;5.826;2023-07-16T08:38:18;6.00;;;2.50;;
26562;SDS011;14217;50.986;5.826;2023-07-16T08:43:20;4.60;;;2.45;;
26562;SDS011;14217;50.986;5.826;2023-07-16T08:48:23;5.07;;;2.75;;
26562;SDS011;14217;50.986;5.826;2023-07-16T08:53:26;2.35;;;2.00;;
26562;SDS011;14217;50.986;5.826;2023-07-16T08:58:28;6.68;;;3.40;;
26562;SDS011;14217;50.986;5.826;2023-07-16T09:03:31;3.65;;;2.60;;
26562;SDS011;14217;50.986;5.826;2023-07-16T09:08:34;2.97;;;2.22;;
26562;SDS011;14217;50.986;5.826;2023-07-16T09:13:36;3.05;;;1.95;;
26562;SDS011;14217;50.986;5.826;2023-07-16T09:18:39;5.53;;;2.08;;
26562;SDS011;14217;50.986;5.826;2023-07-16T09:23:42;10.43;;;3.78;;
26562;SDS011;14217;50.986;5.826;2023-07-16T09:28:47;3.45;;;1.77;;
26562;SDS011;14217;50.986;5.826;2023-07-16T09:33:50;4.90;;;2.47;;
26562;SDS011;14217;50.986;5.826;2023-07-16T09:38:55;6.70;;;1.80;;
26562;SDS011;14217;50.986;5.826;2023-07-16T09:44:00;4.65;;;2.30;;
26562;SDS011;14217;50.986;5.826;2023-07-16T09:49:02;3.17;;;2.25;;
26562;SDS011;14217;50.986;5.826;2023-07-16T09:54:05;5.82;;;2.30;;
26562;SDS011;14217;50.986;5.826;2023-07-16T09:59:09;5.30;;;2.53;;
26562;SDS011;14217;50.986;5.826;2023-07-16T10:04:15;3.00;;;2.47;;
26562;SDS011;14217;50.986;5.826;2023-07-16T10:09:35;4.60;;;2.45;;
26562;SDS011;14217;50.986;5.826;2023-07-16T10:14:43;3.33;;;1.80;;
26562;SDS011;14217;50.986;5.826;2023-07-16T10:19:48;3.25;;;1.95;;
26562;SDS011;14217;50.986;5.826;2023-07-16T10:24:56;2.30;;;1.20;;
26562;SDS011;14217;50.986;5.826;2023-07-16T10:29:59;2.42;;;1.67;;
26562;SDS011;14217;50.986;5.826;2023-07-16T10:35:04;2.90;;;1.58;;
26562;SDS011;14217;50.986;5.826;2023-07-16T10:40:12;2.40;;;1.77;;
26562;SDS011;14217;50.986;5.826;2023-07-16T10:45:14;4.07;;;2.22;;
26562;SDS011;14217;50.986;5.826;2023-07-16T10:50:18;5.65;;;1.80;;
26562;SDS011;14217;50.986;5.826;2023-07-16T10:55:23;8.38;;;2.10;;
26562;SDS011;14217;50.986;5.826;2023-07-16T11:00:27;3.15;;;1.58;;
26562;SDS011;14217;50.986;5.826;2023-07-16T11:05:30;4.40;;;2.03;;
26562;SDS011;14217;50.986;5.826;2023-07-16T11:10:32;3.25;;;1.95;;
26562;SDS011;14217;50.986;5.826;2023-07-16T11:15:35;3.33;;;1.55;;
26562;SDS011;14217;50.986;5.826;2023-07-16T11:20:37;5.40;;;1.83;;
26562;SDS011;14217;50.986;5.826;2023-07-16T11:25:39;3.05;;;1.90;;
26562;SDS011;14217;50.986;5.826;2023-07-16T11:30:47;3.92;;;2.30;;
26562;SDS011;14217;50.986;5.826;2023-07-16T11:35:49;2.55;;;1.38;;
26562;SDS011;14217;50.986;5.826;2023-07-16T11:40:51;3.17;;;1.98;;
26562;SDS011;14217;50.986;5.826;2023-07-16T11:45:53;5.88;;;2.17;;
26562;SDS011;14217;50.986;5.826;2023-07-16T11:50:55;2.83;;;1.70;;
26562;SDS011;14217;50.986;5.826;2023-07-16T11:55:58;4.85;;;1.58;;
26562;SDS011;14217;50.986;5.826;2023-07-16T12:01:00;8.13;;;1.55;;
26562;SDS011;14217;50.986;5.826;2023-07-16T12:06:02;2.53;;;1.63;;
26562;SDS011;14217;50.986;5.826;2023-07-16T12:11:05;2.35;;;1.40;;
26562;SDS011;14217;50.986;5.826;2023-07-16T12:16:07;2.42;;;1.55;;
26562;SDS011;14217;50.986;5.826;2023-07-16T12:21:09;3.97;;;1.38;;
26562;SDS011;14217;50.986;5.826;2023-07-16T12:26:11;1.98;;;1.73;;
26562;SDS011;14217;50.986;5.826;2023-07-16T12:31:14;3.92;;;1.70;;
26562;SDS011;14217;50.986;5.826;2023-07-16T12:36:18;3.67;;;1.52;;
26562;SDS011;14217;50.986;5.826;2023-07-16T12:41:20;1.85;;;1.42;;
26562;SDS011;14217;50.986;5.826;2023-07-16T12:46:22;4.03;;;1.73;;
26562;SDS011;14217;50.986;5.826;2023-07-16T12:51:24;2.08;;;1.30;;
26562;SDS011;14217;50.986;5.826;2023-07-16T12:56:27;2.25;;;1.05;;
26562;SDS011;14217;50.986;5.826;2023-07-16T13:01:29;3.38;;;1.50;;
26562;SDS011;14217;50.986;5.826;2023-07-16T13:06:32;2.47;;;1.38;;
26562;SDS011;14217;50.986;5.826;2023-07-16T13:11:34;1.45;;;1.35;;
26562;SDS011;14217;50.986;5.826;2023-07-16T13:16:36;2.00;;;1.30;;
26562;SDS011;14217;50.986;5.826;2023-07-16T13:21:38;3.22;;;1.42;;
26562;SDS011;14217;50.986;5.826;2023-07-16T13:26:41;2.85;;;1.88;;
26562;SDS011;14217;50.986;5.826;2023-07-16T13:31:45;2.22;;;1.13;;
26562;SDS011;14217;50.986;5.826;2023-07-16T13:36:47;2.33;;;1.55;;
26562;SDS011;14217;50.986;5.826;2023-07-16T13:41:50;2.55;;;1.33;;
26562;SDS011;14217;50.986;5.826;2023-07-16T13:46:52;3.42;;;1.10;;
26562;SDS011;14217;50.986;5.826;2023-07-16T13:51:54;2.28;;;1.73;;
26562;SDS011;14217;50.986;5.826;2023-07-16T13:56:57;2.50;;;1.70;;
26562;SDS011;14217;50.986;5.826;2023-07-16T14:02:00;3.08;;;1.80;;
26562;SDS011;14217;50.986;5.826;2023-07-16T14:07:03;3.20;;;1.67;;
26562;SDS011;14217;50.986;5.826;2023-07-16T14:12:06;3.22;;;1.98;;
26562;SDS011;14217;50.986;5.826;2023-07-16T14:17:08;2.25;;;1.52;;
26562;SDS011;14217;50.986;5.826;2023-07-16T14:22:11;5.53;;;1.58;;
26562;SDS011;14217;50.986;5.826;2023-07-16T14:27:14;3.10;;;1.88;;
26562;SDS011;14217;50.986;5.826;2023-07-16T14:32:16;7.20;;;1.77;;
26562;SDS011;14217;50.986;5.826;2023-07-16T14:37:18;3.95;;;1.83;;
26562;SDS011;14217;50.986;5.826;2023-07-16T14:42:20;2.50;;;1.73;;
26562;SDS011;14217;50.986;5.826;2023-07-16T14:47:22;4.07;;;1.52;;
26562;SDS011;14217;50.986;5.826;2023-07-16T14:52:25;2.92;;;1.67;;
26562;SDS011;14217;50.986;5.826;2023-07-16T14:57:27;3.58;;;2.08;;
26562;SDS011;14217;50.986;5.826;2023-07-16T15:02:29;4.70;;;1.67;;
26562;SDS011;14217;50.986;5.826;2023-07-16T15:07:31;3.60;;;2.03;;
26562;SDS011;14217;50.986;5.826;2023-07-16T15:12:33;4.05;;;2.28;;
26562;SDS011;14217;50.986;5.826;2023-07-16T15:17:35;4.30;;;2.13;;
26562;SDS011;14217;50.986;5.826;2023-07-16T15:22:37;5.75;;;1.83;;
26562;SDS011;14217;50.986;5.826;2023-07-16T15:27:39;2.65;;;1.55;;
26562;SDS011;14217;50.986;5.826;2023-07-16T15:32:41;3.25;;;2.03;;
26562;SDS011;14217;50.986;5.826;2023-07-16T15:37:44;3.03;;;2.13;;
26562;SDS011;14217;50.986;5.826;2023-07-16T15:42:47;7.38;;;2.22;;
26562;SDS011;14217;50.986;5.826;2023-07-16T15:47:51;3.33;;;2.75;;
26562;SDS011;14217;50.986;5.826;2023-07-16T15:53:00;6.68;;;2.45;;
26562;SDS011;14217;50.986;5.826;2023-07-16T15:58:02;3.60;;;2.25;;
26562;SDS011;14217;50.986;5.826;2023-07-16T16:03:04;3.97;;;1.80;;
26562;SDS011;14217;50.986;5.826;2023-07-16T16:08:12;12.45;;;2.88;;
26562;SDS011;14217;50.986;5.826;2023-07-16T16:13:20;3.53;;;2.15;;
26562;SDS011;14217;50.986;5.826;2023-07-16T16:18:24;3.85;;;2.50;;
26562;SDS011;14217;50.986;5.826;2023-07-16T16:23:27;5.22;;;2.10;;
26562;SDS011;14217;50.986;5.826;2023-07-16T16:28:29;3.03;;;2.28;;
26562;SDS011;14217;50.986;5.826;2023-07-16T16:33:32;3.80;;;2.47;;
26562;SDS011;14217;50.986;5.826;2023-07-16T16:38:34;3.40;;;2.28;;
26562;SDS011;14217;50.986;5.826;2023-07-16T16:43:36;4.72;;;1.95;;
26562;SDS011;14217;50.986;5.826;2023-07-16T16:48:39;9.50;;;2.50;;
26562;SDS011;14217;50.986;5.826;2023-07-16T16:53:45;3.92;;;2.75;;
26562;SDS011;14217;50.986;5.826;2023-07-16T16:58:48;3.20;;;1.85;;
26562;SDS011;14217;50.986;5.826;2023-07-16T17:03:50;3.47;;;2.03;;
26562;SDS011;14217;50.986;5.826;2023-07-16T17:08:52;2.25;;;1.90;;
26562;SDS011;14217;50.986;5.826;2023-07-16T17:13:54;3.40;;;1.70;;
26562;SDS011;14217;50.986;5.826;2023-07-16T17:18:56;4.07;;;2.00;;
26562;SDS011;14217;50.986;5.826;2023-07-16T17:23:58;4.78;;;2.10;;
26562;SDS011;14217;50.986;5.826;2023-07-16T17:29:00;4.43;;;2.25;;
26562;SDS011;14217;50.986;5.826;2023-07-16T17:34:02;1.98;;;1.75;;
26562;SDS011;14217;50.986;5.826;2023-07-16T17:39:05;2.92;;;1.92;;
26562;SDS011;14217;50.986;5.826;2023-07-16T17:44:08;5.63;;;2.72;;
26562;SDS011;14217;50.986;5.826;2023-07-16T17:49:10;5.22;;;2.53;;
26562;SDS011;14217;50.986;5.826;2023-07-16T17:54:12;7.45;;;2.80;;
26562;SDS011;14217;50.986;5.826;2023-07-16T17:59:14;3.05;;;2.22;;
26562;SDS011;14217;50.986;5.826;2023-07-16T18:04:17;8.65;;;2.25;;
26562;SDS011;14217;50.986;5.826;2023-07-16T18:09:21;6.95;;;2.50;;
26562;SDS011;14217;50.986;5.826;2023-07-16T18:14:23;10.63;;;2.47;;
26562;SDS011;14217;50.986;5.826;2023-07-16T18:19:25;5.72;;;2.55;;
26562;SDS011;14217;50.986;5.826;2023-07-16T18:24:30;2.00;;;1.65;;
26562;SDS011;14217;50.986;5.826;2023-07-16T18:29:33;3.53;;;1.95;;
26562;SDS011;14217;50.986;5.826;2023-07-16T18:34:35;3.85;;;1.85;;
26562;SDS011;14217;50.986;5.826;2023-07-16T18:39:37;2.83;;;1.98;;
26562;SDS011;14217;50.986;5.826;2023-07-16T18:44:40;2.92;;;2.05;;
26562;SDS011;14217;50.986;5.826;2023-07-16T18:49:42;5.80;;;1.65;;
26562;SDS011;14217;50.986;5.826;2023-07-16T18:54:44;4.10;;;2.08;;
26562;SDS011;14217;50.986;5.826;2023-07-16T18:59:46;2.63;;;1.73;;
26562;SDS011;14217;50.986;5.826;2023-07-16T19:04:48;6.22;;;1.90;;
26562;SDS011;14217;50.986;5.826;2023-07-16T19:09:51;1.92;;;1.38;;
26562;SDS011;14217;50.986;5.826;2023-07-16T19:14:53;8.55;;;2.20;;
26562;SDS011;14217;50.986;5.826;2023-07-16T19:20:03;6.60;;;2.03;;
26562;SDS011;14217;50.986;5.826;2023-07-16T19:25:07;2.47;;;1.40;;
26562;SDS011;14217;50.986;5.826;2023-07-16T19:30:09;1.75;;;1.30;;
26562;SDS011;14217;50.986;5.826;2023-07-16T19:35:12;3.15;;;1.92;;
26562;SDS011;14217;50.986;5.826;2023-07-16T19:40:15;3.38;;;1.60;;
26562;SDS011;14217;50.986;5.826;2023-07-16T19:45:17;3.55;;;2.30;;
26562;SDS011;14217;50.986;5.826;2023-07-16T19:50:20;2.42;;;1.65;;
26562;SDS011;14217;50.986;5.826;2023-07-16T19:55:22;3.45;;;1.83;;
26562;SDS011;14217;50.986;5.826;2023-07-16T20:00:24;2.67;;;2.17;;
26562;SDS011;14217;50.986;5.826;2023-07-16T20:05:28;2.38;;;1.73;;
26562;SDS011;14217;50.986;5.826;2023-07-16T20:10:31;2.83;;;1.63;;
26562;SDS011;14217;50.986;5.826;2023-07-16T20:15:33;5.45;;;1.52;;
26562;SDS011;14217;50.986;5.826;2023-07-16T20:20:37;4.50;;;1.40;;
26562;SDS011;14217;50.986;5.826;2023-07-16T20:25:39;1.48;;;1.38;;
26562;SDS011;14217;50.986;5.826;2023-07-16T20:30:43;3.25;;;2.20;;
26562;SDS011;14217;50.986;5.826;2023-07-16T20:35:46;2.15;;;1.30;;
26562;SDS011;14217;50.986;5.826;2023-07-16T20:40:49;2.80;;;1.65;;
26562;SDS011;14217;50.986;5.826;2023-07-16T20:45:51;1.98;;;1.25;;
26562;SDS011;14217;50.986;5.826;2023-07-16T20:50:54;1.45;;;1.35;;
26562;SDS011;14217;50.986;5.826;2023-07-16T20:55:56;2.08;;;1.23;;
26562;SDS011;14217;50.986;5.826;2023-07-16T21:00:58;2.53;;;1.50;;
26562;SDS011;14217;50.986;5.826;2023-07-16T21:06:00;2.38;;;1.23;;
26562;SDS011;14217;50.986;5.826;2023-07-16T21:11:02;2.25;;;1.73;;
26562;SDS011;14217;50.986;5.826;2023-07-16T21:16:04;2.05;;;1.27;;
26562;SDS011;14217;50.986;5.826;2023-07-16T21:21:06;2.55;;;1.30;;
26562;SDS011;14217;50.986;5.826;2023-07-16T21:26:08;2.03;;;1.20;;
26562;SDS011;14217;50.986;5.826;2023-07-16T21:31:11;1.40;;;1.30;;
26562;SDS011;14217;50.986;5.826;2023-07-16T21:36:13;2.95;;;0.90;;
26562;SDS011;14217;50.986;5.826;2023-07-16T21:41:15;1.73;;;1.33;;
26562;SDS011;14217;50.986;5.826;2023-07-16T21:46:18;1.85;;;0.95;;
26562;SDS011;14217;50.986;5.826;2023-07-16T21:51:20;1.90;;;1.50;;
26562;SDS011;14217;50.986;5.826;2023-07-16T21:56:22;1.58;;;1.40;;
26562;SDS011;14217;50.986;5.826;2023-07-16T22:01:24;3.00;;;1.48;;
26562;SDS011;14217;50.986;5.826;2023-07-16T22:06:26;2.10;;;1.17;;
26562;SDS011;14217;50.986;5.826;2023-07-16T22:11:28;9.80;;;1.20;;
26562;SDS011;14217;50.986;5.826;2023-07-16T22:16:31;1.75;;;1.63;;
26562;SDS011;14217;50.986;5.826;2023-07-16T22:21:37;16.02;;;1.10;;
26562;SDS011;14217;50.986;5.826;2023-07-16T22:26:39;7.53;;;2.25;;
26562;SDS011;14217;50.986;5.826;2023-07-16T22:31:41;3.60;;;1.92;;
26562;SDS011;14217;50.986;5.826;2023-07-16T22:36:43;2.70;;;1.50;;
26562;SDS011;14217;50.986;5.826;2023-07-16T22:41:46;13.45;;;1.65;;
26562;SDS011;14217;50.986;5.826;2023-07-16T22:46:48;1.80;;;1.60;;
26562;SDS011;14217;50.986;5.826;2023-07-16T22:51:50;2.00;;;1.55;;
26562;SDS011;14217;50.986;5.826;2023-07-16T22:56:52;2.58;;;1.40;;
26562;SDS011;14217;50.986;5.826;2023-07-16T23:01:54;2.00;;;1.20;;
26562;SDS011;14217;50.986;5.826;2023-07-16T23:06:56;3.47;;;1.20;;
26562;SDS011;14217;50.986;5.826;2023-07-16T23:11:58;2.75;;;1.52;;
26562;SDS011;14217;50.986;5.826;2023-07-16T23:17:01;1.10;;;1.00;;
26562;SDS011;14217;50.986;5.826;2023-07-16T23:22:03;1.85;;;0.98;;
26562;SDS011;14217;50.986;5.826;2023-07-16T23:27:05;1.70;;;0.90;;
26562;SDS011;14217;50.986;5.826;2023-07-16T23:32:08;1.67;;;0.95;;
26562;SDS011;14217;50.986;5.826;2023-07-16T23:37:10;1.35;;;0.82;;
26562;SDS011;14217;50.986;5.826;2023-07-16T23:42:12;0.60;;;0.60;;
26562;SDS011;14217;50.986;5.826;2023-07-16T23:47:14;1.00;;;0.60;;
26562;SDS011;14217;50.986;5.826;2023-07-16T23:52:16;2.25;;;1.00;;
26562;SDS011;14217;50.986;5.826;2023-07-16T23:57:19;1.20;;;0.95;;
